createdAt,value
2017-12-25T00:01:50.371Z,100552.22
2017-12-25T00:04:17.851Z,100548.35
2017-12-25T00:06:46.317Z,100550.39
2017-12-25T00:09:13.776Z,100553.72
2017-12-25T00:11:41.243Z,100549.98
2017-12-25T00:14:08.687Z,100560.54
2017-12-25T00:16:36.140Z,100558.39
2017-12-25T00:19:03.584Z,100558.23
2017-12-25T00:21:31.039Z,100560.52
2017-12-25T00:23:58.503Z,100566.67
2017-12-25T00:26:26.012Z,100566.13
2017-12-25T00:28:53.470Z,100562.41
2017-12-25T00:31:20.914Z,100552.89
2017-12-25T00:33:48.415Z,100553.53
2017-12-25T00:36:15.880Z,100554.78
2017-12-25T00:38:43.351Z,100553.05
2017-12-25T00:41:10.815Z,100558.50
2017-12-25T00:43:38.278Z,100564.94
2017-12-25T00:46:05.736Z,100560.38
2017-12-25T00:48:33.217Z,100558.00
2017-12-25T00:51:00.664Z,100557.48
2017-12-25T00:53:28.129Z,100556.67
2017-12-25T00:55:55.577Z,100554.55
2017-12-25T00:58:23.114Z,100553.72
2017-12-25T01:00:50.572Z,100548.11
2017-12-25T01:03:18.027Z,100547.81
2017-12-25T01:05:45.484Z,100542.34
2017-12-25T01:08:12.934Z,100546.46
2017-12-25T01:10:40.402Z,100529.35
2017-12-25T01:13:07.862Z,100545.25
2017-12-25T01:15:36.214Z,100547.78
2017-12-25T01:18:03.671Z,100563.19
2017-12-25T01:20:31.137Z,100565.53
2017-12-25T01:22:58.595Z,100552.86
2017-12-25T01:25:26.078Z,100558.86
2017-12-25T01:27:53.583Z,100575.70
2017-12-25T01:30:21.046Z,100565.69
2017-12-25T01:32:48.635Z,100561.12
2017-12-25T01:35:16.108Z,100561.92
2017-12-25T01:37:43.555Z,100559.49
2017-12-25T01:40:11.016Z,100560.02
2017-12-25T01:42:38.476Z,100557.59
2017-12-25T01:45:05.953Z,100553.31
2017-12-25T01:47:33.414Z,100556.91
2017-12-25T01:50:00.876Z,100557.67
2017-12-25T01:52:28.354Z,100555.03
2017-12-25T01:54:55.799Z,100559.02
2017-12-25T01:57:27.858Z,100556.96
2017-12-25T02:02:52.906Z,100547.27
2017-12-25T02:05:35.734Z,100553.13
2017-12-25T02:08:05.895Z,100551.78
2017-12-25T02:10:33.437Z,100550.50
2017-12-25T02:13:01.002Z,100545.36
2017-12-25T02:15:28.506Z,100538.97
2017-12-25T02:17:55.953Z,100546.47
2017-12-25T02:20:23.405Z,100548.00
2017-12-25T02:22:50.849Z,100540.12
2017-12-25T02:25:18.307Z,100547.55
2017-12-25T02:27:45.758Z,100544.48
2017-12-25T02:30:13.237Z,100550.70
2017-12-25T02:32:40.740Z,100551.61
2017-12-25T02:35:08.303Z,100562.91
2017-12-25T02:37:35.922Z,100555.98
2017-12-25T02:40:03.932Z,100561.40
2017-12-25T02:42:31.401Z,100560.06
2017-12-25T02:44:58.872Z,100563.16
2017-12-25T02:47:26.312Z,100563.13
2017-12-25T02:49:53.771Z,100562.56
2017-12-25T02:52:21.274Z,100564.83
2017-12-25T02:54:48.826Z,100565.66
2017-12-25T02:57:16.306Z,100559.97
2017-12-25T02:59:43.761Z,100560.84
2017-12-25T03:02:11.222Z,100567.84
2017-12-25T03:04:38.672Z,100564.16
2017-12-25T03:07:06.138Z,100567.97
2017-12-25T03:09:33.599Z,100571.19
2017-12-25T03:12:01.069Z,100568.27
2017-12-25T03:14:28.551Z,100566.09
2017-12-25T03:16:56.004Z,100564.69
2017-12-25T03:19:24.756Z,100567.38
2017-12-25T03:21:52.265Z,100567.20
2017-12-25T03:24:19.707Z,100566.84
2017-12-25T03:26:47.173Z,100562.71
2017-12-25T03:29:14.714Z,100560.03
2017-12-25T03:31:42.147Z,100553.63
2017-12-25T03:34:09.604Z,100558.99
2017-12-25T03:36:37.070Z,100558.55
2017-12-25T03:39:05.295Z,100565.81
2017-12-25T03:41:32.818Z,100559.88
2017-12-25T03:44:00.296Z,100560.77
2017-12-25T03:46:27.763Z,100569.01
2017-12-25T03:48:55.216Z,100568.48
2017-12-25T03:51:22.674Z,100561.77
2017-12-25T03:53:50.170Z,100557.87
2017-12-25T03:56:17.642Z,100553.72
2017-12-25T03:58:45.085Z,100562.53
2017-12-25T04:01:12.547Z,100561.34
2017-12-25T04:03:40.037Z,100563.06
2017-12-25T04:06:07.484Z,100556.38
2017-12-25T04:08:34.947Z,100554.40
2017-12-25T04:11:02.420Z,100558.80
2017-12-25T04:13:29.880Z,100562.27
2017-12-25T04:15:57.329Z,100560.41
2017-12-25T04:18:24.792Z,100554.64
2017-12-25T04:20:56.494Z,100558.34
2017-12-25T04:23:23.972Z,100558.49
2017-12-25T04:25:51.410Z,100556.88
2017-12-25T04:28:18.873Z,100556.86
2017-12-25T04:30:46.443Z,100555.45
2017-12-25T04:33:13.890Z,100556.15
2017-12-25T04:35:41.354Z,100552.31
2017-12-25T04:38:08.806Z,100551.36
2017-12-25T04:40:36.265Z,100552.87
2017-12-25T04:43:03.729Z,100555.00
2017-12-25T04:45:31.196Z,100552.28
2017-12-25T04:47:58.719Z,100555.59
2017-12-25T04:50:26.183Z,100553.04
2017-12-25T04:52:53.651Z,100551.19
2017-12-25T04:55:21.121Z,100551.30
2017-12-25T04:57:48.682Z,100550.25
2017-12-25T05:00:16.178Z,100554.03
2017-12-25T05:02:43.639Z,100545.70
2017-12-25T05:05:11.090Z,100542.28
2017-12-25T05:07:38.588Z,100541.44
2017-12-25T05:10:06.049Z,100546.73
2017-12-25T05:12:33.625Z,100540.77
2017-12-25T05:15:01.084Z,100533.96
2017-12-25T05:17:28.561Z,100539.61
2017-12-25T05:19:56.026Z,100538.92
2017-12-25T05:22:23.492Z,100538.48
2017-12-25T05:24:50.940Z,100539.32
2017-12-25T05:27:18.412Z,100542.66
2017-12-25T05:29:45.876Z,100536.45
2017-12-25T05:32:13.318Z,100540.73
2017-12-25T05:34:40.857Z,100538.33
2017-12-25T05:37:08.279Z,100532.48
2017-12-25T05:39:35.733Z,100538.48
2017-12-25T05:42:03.204Z,100534.60
2017-12-25T05:44:30.683Z,100539.55
2017-12-25T05:46:58.138Z,100534.52
2017-12-25T05:49:25.582Z,100538.36
2017-12-25T05:51:53.040Z,100536.05
2017-12-25T05:54:20.504Z,100542.16
2017-12-25T05:56:47.964Z,100538.50
2017-12-25T05:59:15.462Z,100536.22
2017-12-25T06:01:42.923Z,100540.91
2017-12-25T06:04:10.368Z,100540.20
2017-12-25T06:06:37.834Z,100543.45
2017-12-25T06:09:05.313Z,100539.28
2017-12-25T06:11:32.767Z,100542.65
2017-12-25T06:14:00.290Z,100538.98
2017-12-25T06:16:27.761Z,100532.34
2017-12-25T06:18:55.217Z,100528.77
2017-12-25T06:21:22.658Z,100531.16
2017-12-25T06:23:50.135Z,100531.59
2017-12-25T06:26:17.568Z,100526.31
2017-12-25T06:28:45.030Z,100523.42
2017-12-25T06:31:12.489Z,100523.16
2017-12-25T06:33:39.932Z,100523.95
2017-12-25T06:36:07.409Z,100530.83
2017-12-25T06:38:34.861Z,100527.04
2017-12-25T06:41:02.354Z,100524.66
2017-12-25T06:43:29.802Z,100532.11
2017-12-25T06:45:57.293Z,100529.84
2017-12-25T06:48:24.756Z,100535.10
2017-12-25T06:50:52.230Z,100531.20
2017-12-25T06:53:19.669Z,100535.98
2017-12-25T06:55:47.129Z,100533.88
2017-12-25T06:58:14.751Z,100527.17
2017-12-25T07:00:42.227Z,100533.80
2017-12-25T07:03:09.705Z,100538.77
2017-12-25T07:05:37.210Z,100539.67
2017-12-25T07:08:04.671Z,100540.02
2017-12-25T07:10:32.120Z,100542.55
2017-12-25T07:12:59.597Z,100546.67
2017-12-25T07:15:27.047Z,100541.63
2017-12-25T07:17:55.394Z,100537.59
2017-12-25T07:20:22.968Z,100548.25
2017-12-25T07:22:50.450Z,100531.65
2017-12-25T07:25:17.956Z,100537.20
2017-12-25T07:27:45.397Z,100539.14
2017-12-25T07:30:12.863Z,100543.44
2017-12-25T07:32:40.307Z,100544.30
2017-12-25T07:35:07.774Z,100548.36
2017-12-25T07:37:35.240Z,100548.91
2017-12-25T07:40:02.692Z,100555.66
2017-12-25T07:42:30.145Z,100560.44
2017-12-25T07:44:57.584Z,100555.31
2017-12-25T07:47:25.040Z,100556.01
2017-12-25T07:49:52.483Z,100563.85
2017-12-25T07:52:19.969Z,100560.95
2017-12-25T07:54:47.411Z,100578.50
2017-12-25T07:57:14.884Z,100567.96
2017-12-25T07:59:42.341Z,100573.53
2017-12-25T08:02:09.812Z,100569.23
2017-12-25T08:04:37.255Z,100588.78
2017-12-25T08:07:04.704Z,100574.23
2017-12-25T08:09:32.167Z,100581.51
2017-12-25T08:11:59.626Z,100577.94
2017-12-25T08:14:27.093Z,100576.97
2017-12-25T08:16:54.536Z,100580.62
2017-12-25T08:19:22.010Z,100587.02
2017-12-25T08:21:49.453Z,100584.30
2017-12-25T08:24:16.893Z,100582.33
2017-12-25T08:26:44.365Z,100577.95
2017-12-25T08:29:11.883Z,100578.75
2017-12-25T08:31:39.342Z,100580.38
2017-12-25T08:34:06.781Z,100574.52
2017-12-25T08:36:34.238Z,100579.28
2017-12-25T08:39:01.758Z,100584.80
2017-12-25T08:41:29.244Z,100583.89
2017-12-25T08:43:56.694Z,100575.81
2017-12-25T08:46:24.145Z,100584.38
2017-12-25T08:48:51.601Z,100589.82
2017-12-25T08:51:19.111Z,100580.72
2017-12-25T08:53:46.567Z,100582.98
2017-12-25T08:56:14.014Z,100581.76
2017-12-25T08:58:41.521Z,100587.43
2017-12-25T09:01:08.974Z,100574.95
2017-12-25T09:03:36.430Z,100577.09
2017-12-25T09:06:04.161Z,100581.53
2017-12-25T09:08:31.715Z,100574.95
2017-12-25T09:10:59.158Z,100577.59
2017-12-25T09:13:26.607Z,100586.42
2017-12-25T09:15:54.056Z,100585.09
2017-12-25T09:18:21.488Z,100587.91
2017-12-25T09:20:48.950Z,100568.30
2017-12-25T09:23:16.397Z,100578.94
2017-12-25T09:25:43.906Z,100583.61
2017-12-25T09:28:11.369Z,100581.81
2017-12-25T09:30:38.819Z,100581.24
2017-12-25T09:33:06.488Z,100584.14
2017-12-25T09:35:33.989Z,100585.14
2017-12-25T09:38:01.468Z,100582.05
2017-12-25T09:40:28.955Z,100583.14
2017-12-25T09:42:56.394Z,100578.00
2017-12-25T09:45:24.139Z,100573.91
2017-12-25T09:47:51.632Z,100581.21
2017-12-25T09:50:19.072Z,100578.17
2017-12-25T09:52:46.532Z,100593.71
2017-12-25T09:55:13.973Z,100574.81
2017-12-25T09:57:41.545Z,100568.89
2017-12-25T10:00:09.006Z,100577.75
2017-12-25T10:02:36.704Z,100582.41
2017-12-25T10:05:04.904Z,100568.89
2017-12-25T10:07:32.452Z,100569.92
2017-12-25T10:09:59.897Z,100555.95
2017-12-25T10:12:27.343Z,100550.92
2017-12-25T10:14:54.828Z,100549.77
2017-12-25T10:17:22.277Z,100537.70
2017-12-25T10:19:49.796Z,100555.33
2017-12-25T10:22:17.233Z,100541.39
2017-12-25T10:24:44.923Z,100537.90
2017-12-25T10:27:12.425Z,100539.53
2017-12-25T10:29:39.888Z,100527.67
2017-12-25T10:32:07.459Z,100518.37
2017-12-25T10:34:35.235Z,100516.34
2017-12-25T10:37:02.685Z,100518.47
2017-12-25T10:39:30.443Z,100528.96
2017-12-25T10:41:57.921Z,100520.14
2017-12-25T10:44:25.369Z,100509.95
2017-12-25T10:46:52.852Z,100509.24
2017-12-25T10:49:20.301Z,100507.81
2017-12-25T10:51:47.764Z,100506.18
2017-12-25T10:54:15.214Z,100494.16
2017-12-25T10:56:42.685Z,100497.19
2017-12-25T10:59:10.132Z,100500.61
2017-12-25T11:01:37.606Z,100496.36
2017-12-25T11:04:05.092Z,100495.89
2017-12-25T11:06:32.544Z,100495.25
2017-12-25T11:09:00.008Z,100490.35
2017-12-25T11:11:27.461Z,100484.84
2017-12-25T11:13:54.919Z,100478.39
2017-12-25T11:16:22.364Z,100475.01
2017-12-25T11:18:49.840Z,100477.76
2017-12-25T11:21:17.341Z,100471.22
2017-12-25T11:23:44.863Z,100469.27
2017-12-25T11:26:12.433Z,100459.97
2017-12-25T11:28:39.889Z,100463.52
2017-12-25T11:31:07.340Z,100459.12
2017-12-25T11:33:34.864Z,100448.64
2017-12-25T11:36:02.315Z,100449.77
2017-12-25T11:38:29.789Z,100441.66
2017-12-25T11:40:57.393Z,100438.67
2017-12-25T11:43:24.841Z,100446.56
2017-12-25T11:45:52.401Z,100450.56
2017-12-25T11:48:19.889Z,100438.44
2017-12-25T11:50:47.366Z,100439.77
2017-12-25T11:53:14.829Z,100439.09
2017-12-25T11:55:42.274Z,100431.95
2017-12-25T11:58:09.756Z,100430.78
2017-12-25T12:00:37.200Z,100428.22
2017-12-25T12:03:04.670Z,100426.84
2017-12-25T12:05:32.134Z,100422.48
2017-12-25T12:07:59.631Z,100417.84
2017-12-25T12:10:27.092Z,100411.18
2017-12-25T12:12:54.563Z,100412.27
2017-12-25T12:15:22.000Z,100396.36
2017-12-25T12:17:49.501Z,100387.48
2017-12-25T12:20:19.125Z,100389.02
2017-12-25T12:22:46.608Z,100388.17
2017-12-25T12:25:14.085Z,100384.91
2017-12-25T12:27:41.548Z,100379.59
2017-12-25T12:30:09.002Z,100376.63
2017-12-25T12:32:36.492Z,100370.62
2017-12-25T12:35:04.756Z,100373.19
2017-12-25T12:37:32.250Z,100366.30
2017-12-25T12:39:59.744Z,100360.39
2017-12-25T12:42:27.188Z,100354.12
2017-12-25T12:44:54.646Z,100356.20
2017-12-25T12:47:22.105Z,100360.61
2017-12-25T12:49:49.543Z,100353.54
2017-12-25T12:52:17.007Z,100343.53
2017-12-25T12:54:44.547Z,100340.21
2017-12-25T12:57:12.017Z,100337.14
2017-12-25T12:59:39.465Z,100335.95
2017-12-25T13:02:06.957Z,100330.56
2017-12-25T13:04:34.417Z,100317.80
2017-12-25T13:07:01.863Z,100320.52
2017-12-25T13:09:29.323Z,100310.16
2017-12-25T13:11:56.786Z,100306.33
2017-12-25T13:14:24.372Z,100292.25
2017-12-25T13:16:51.844Z,100294.25
2017-12-25T13:19:19.307Z,100293.89
2017-12-25T13:21:46.762Z,100298.56
2017-12-25T13:24:14.256Z,100295.44
2017-12-25T13:26:41.712Z,100287.34
2017-12-25T13:29:09.169Z,100286.55
2017-12-25T13:31:36.733Z,100285.85
2017-12-25T13:34:05.018Z,100283.30
2017-12-25T13:36:32.483Z,100280.69
2017-12-25T13:38:59.953Z,100276.53
2017-12-25T13:41:27.423Z,100268.70
2017-12-25T13:43:54.895Z,100268.96
2017-12-25T13:46:22.351Z,100260.57
2017-12-25T13:48:49.801Z,100261.13
2017-12-25T13:51:17.357Z,100251.31
2017-12-25T13:53:44.815Z,100255.09
2017-12-25T13:56:12.277Z,100246.09
2017-12-25T13:58:39.779Z,100248.69
2017-12-25T14:01:07.247Z,100250.92
2017-12-25T14:03:34.713Z,100255.50
2017-12-25T14:06:02.170Z,100250.17
2017-12-25T14:08:29.639Z,100243.19
2017-12-25T14:10:57.099Z,100240.54
2017-12-25T14:13:24.801Z,100241.85
2017-12-25T14:15:52.252Z,100241.58
2017-12-25T14:18:19.695Z,100235.70
2017-12-25T14:20:47.158Z,100232.35
2017-12-25T14:23:14.616Z,100237.05
2017-12-25T14:25:42.084Z,100231.03
2017-12-25T14:28:09.572Z,100237.84
2017-12-25T14:30:37.053Z,100234.77
2017-12-25T14:33:04.497Z,100233.63
2017-12-25T14:35:32.049Z,100231.34
2017-12-25T14:37:59.499Z,100231.16
2017-12-25T14:40:27.016Z,100222.78
2017-12-25T14:42:54.446Z,100223.52
2017-12-25T14:45:21.960Z,100227.73
2017-12-25T14:47:49.450Z,100227.21
2017-12-25T14:50:16.986Z,100221.31
2017-12-25T14:52:44.545Z,100220.08
2017-12-25T14:55:12.014Z,100210.63
2017-12-25T14:57:39.483Z,100207.87
2017-12-25T15:00:06.956Z,100206.74
2017-12-25T15:02:34.431Z,100202.21
2017-12-25T15:05:01.960Z,100208.62
2017-12-25T15:07:29.523Z,100203.68
2017-12-25T15:09:56.980Z,100200.84
2017-12-25T15:12:24.448Z,100195.70
2017-12-25T15:14:51.946Z,100198.79
2017-12-25T15:17:19.392Z,100188.54
2017-12-25T15:19:46.845Z,100192.66
2017-12-25T15:22:14.354Z,100184.55
2017-12-25T15:24:41.872Z,100177.81
2017-12-25T15:27:09.320Z,100179.36
2017-12-25T15:29:36.861Z,100174.03
2017-12-25T15:32:04.303Z,100173.20
2017-12-25T15:34:31.807Z,100173.06
2017-12-25T15:36:59.277Z,100176.27
2017-12-25T15:39:26.727Z,100174.88
2017-12-25T15:41:54.179Z,100181.94
2017-12-25T15:44:21.707Z,100173.08
2017-12-25T15:46:49.171Z,100166.41
2017-12-25T15:49:16.634Z,100163.98
2017-12-25T15:51:44.216Z,100159.17
2017-12-25T15:54:11.725Z,100155.98
2017-12-25T15:56:39.175Z,100154.34
2017-12-25T15:59:06.639Z,100153.73
2017-12-25T16:01:34.078Z,100146.22
2017-12-25T16:04:01.592Z,100144.58
2017-12-25T16:06:29.032Z,100145.77
2017-12-25T16:08:56.486Z,100138.87
2017-12-25T16:11:23.971Z,100138.72
2017-12-25T16:13:51.422Z,100131.69
2017-12-25T16:16:18.912Z,100136.67
2017-12-25T16:18:46.693Z,100134.02
2017-12-25T16:21:14.156Z,100133.28
2017-12-25T16:23:41.618Z,100128.53
2017-12-25T16:26:09.109Z,100131.75
2017-12-25T16:28:36.575Z,100129.28
2017-12-25T16:31:04.063Z,100122.66
2017-12-25T16:33:31.517Z,100120.52
2017-12-25T16:35:59.102Z,100123.64
2017-12-25T16:38:26.602Z,100116.64
2017-12-25T16:40:54.154Z,100113.97
2017-12-25T16:43:21.619Z,100111.85
2017-12-25T16:45:49.078Z,100101.49
2017-12-25T16:48:16.546Z,100090.54
2017-12-25T16:50:44.032Z,100089.34
2017-12-25T16:53:11.477Z,100087.67
2017-12-25T16:55:38.952Z,100087.95
2017-12-25T16:58:06.432Z,100076.08
2017-12-25T17:00:33.875Z,100083.12
2017-12-25T17:03:01.402Z,100082.84
2017-12-25T17:05:28.936Z,100083.19
2017-12-25T17:07:56.410Z,100075.94
2017-12-25T17:10:23.917Z,100076.62
2017-12-25T17:12:51.376Z,100077.81
2017-12-25T17:15:18.884Z,100078.11
2017-12-25T17:17:46.391Z,100074.42
2017-12-25T17:20:13.868Z,100073.29
2017-12-25T17:22:41.359Z,100067.51
2017-12-25T17:25:08.950Z,100059.64
2017-12-25T17:27:36.522Z,100058.84
2017-12-25T17:30:04.013Z,100058.26
2017-12-25T17:32:31.472Z,100060.84
2017-12-25T17:34:59.100Z,100057.89
2017-12-25T17:37:26.620Z,100052.09
2017-12-25T17:39:54.086Z,100051.34
2017-12-25T17:42:21.559Z,100046.47
2017-12-25T17:44:49.038Z,100042.01
2017-12-25T17:47:16.509Z,100037.13
2017-12-25T17:49:43.989Z,100029.53
2017-12-25T17:52:11.524Z,100028.66
2017-12-25T17:54:38.998Z,100030.63
2017-12-25T17:57:06.637Z,100029.46
2017-12-25T17:59:34.105Z,100027.34
2017-12-25T18:02:01.561Z,100022.42
2017-12-25T18:04:29.066Z,100019.50
2017-12-25T18:06:56.569Z,100009.87
2017-12-25T18:09:24.014Z,99998.20
2017-12-25T18:11:51.481Z,99998.91
2017-12-25T18:14:18.933Z,99999.06
2017-12-25T18:16:46.412Z,99997.84
2017-12-25T18:19:13.911Z,99995.84
2017-12-25T18:21:41.361Z,99993.97
2017-12-25T18:24:08.826Z,99982.66
2017-12-25T18:26:36.340Z,99983.58
2017-12-25T18:29:03.793Z,99983.34
2017-12-25T18:31:31.242Z,99977.92
2017-12-25T18:33:58.773Z,99971.56
2017-12-25T18:36:26.332Z,99966.67
2017-12-25T18:38:53.793Z,99963.13
2017-12-25T18:41:21.266Z,99960.19
2017-12-25T18:43:48.795Z,99962.11
2017-12-25T18:46:16.316Z,99964.20
2017-12-25T18:48:43.776Z,99958.46
2017-12-25T18:51:11.240Z,99954.86
2017-12-25T18:53:38.722Z,99954.56
2017-12-25T18:56:06.232Z,99960.73
2017-12-25T18:58:33.726Z,99953.25
2017-12-25T19:01:01.182Z,99945.55
2017-12-25T19:03:28.657Z,99940.78
2017-12-25T19:05:56.131Z,99929.57
2017-12-25T19:08:23.597Z,99926.80
2017-12-25T19:10:51.128Z,99916.61
2017-12-25T19:13:18.590Z,99915.27
2017-12-25T19:15:46.047Z,99911.10
2017-12-25T19:18:16.207Z,99899.31
2017-12-25T19:20:45.167Z,99898.24
2017-12-25T19:23:12.646Z,99892.94
2017-12-25T19:25:40.165Z,99889.92
2017-12-25T19:28:07.729Z,99896.16
2017-12-25T19:30:35.329Z,99894.22
2017-12-25T19:33:02.852Z,99889.27
2017-12-25T19:35:30.356Z,99879.89
2017-12-25T19:37:57.860Z,99876.14
2017-12-25T19:40:25.308Z,99877.27
2017-12-25T19:42:52.756Z,99879.83
2017-12-25T19:45:20.358Z,99877.58
2017-12-25T19:47:47.807Z,99869.63
2017-12-25T19:50:15.296Z,99860.22
2017-12-25T19:52:43.088Z,99856.13
2017-12-25T19:55:10.619Z,99850.83
2017-12-25T19:57:38.081Z,99848.76
2017-12-25T20:00:06.441Z,99841.55
2017-12-25T20:02:33.953Z,99840.23
2017-12-25T20:05:01.455Z,99843.73
2017-12-25T20:07:28.972Z,99837.65
2017-12-25T20:09:56.461Z,99839.84
2017-12-25T20:12:23.954Z,99828.20
2017-12-25T20:14:51.402Z,99835.66
2017-12-25T20:17:18.946Z,99831.98
2017-12-25T20:19:46.442Z,99826.27
2017-12-25T20:22:13.896Z,99834.53
2017-12-25T20:24:41.873Z,99833.03
2017-12-25T20:27:09.417Z,99825.78
2017-12-25T20:29:36.937Z,99824.24
2017-12-25T20:32:04.390Z,99824.52
2017-12-25T20:34:31.955Z,99823.07
2017-12-25T20:36:59.713Z,99820.95
2017-12-25T20:39:27.298Z,99816.66
2017-12-25T20:41:54.992Z,99812.17
2017-12-25T20:44:22.557Z,99808.34
2017-12-25T20:46:50.127Z,99808.34
2017-12-25T20:49:17.631Z,99797.11
2017-12-25T20:51:45.479Z,99796.19
2017-12-25T20:54:13.004Z,99792.05
2017-12-25T20:56:40.513Z,99787.72
2017-12-25T20:59:08.043Z,99794.58
2017-12-25T21:01:35.501Z,99784.18
2017-12-25T21:04:03.006Z,99784.05
2017-12-25T21:06:30.481Z,99777.97
2017-12-25T21:08:57.992Z,99785.19
2017-12-25T21:11:25.529Z,99779.17
2017-12-25T21:13:52.987Z,99773.42
2017-12-25T21:16:20.500Z,99772.78
2017-12-25T21:18:48.422Z,99774.85
2017-12-25T21:21:16.060Z,99768.59
2017-12-25T21:23:43.627Z,99763.56
2017-12-25T21:26:11.159Z,99762.66
2017-12-25T21:28:38.651Z,99759.54
2017-12-25T21:31:06.169Z,99757.11
2017-12-25T21:33:33.682Z,99757.05
2017-12-25T21:36:01.207Z,99754.13
2017-12-25T21:38:28.732Z,99749.33
2017-12-25T21:40:56.245Z,99751.32
2017-12-25T21:43:23.851Z,99750.24
2017-12-25T21:45:51.495Z,99745.52
2017-12-25T21:48:19.000Z,99747.94
2017-12-25T21:50:46.508Z,99743.80
2017-12-25T21:53:14.019Z,99742.27
2017-12-25T21:55:41.547Z,99746.97
2017-12-25T21:58:09.083Z,99746.09
2017-12-25T22:00:36.593Z,99744.16
2017-12-25T22:03:04.112Z,99736.85
2017-12-25T22:05:31.662Z,99736.95
2017-12-25T22:07:59.168Z,99730.99
2017-12-25T22:10:26.615Z,99726.25
2017-12-25T22:12:54.140Z,99721.46
2017-12-25T22:15:21.660Z,99712.26
2017-12-25T22:17:49.175Z,99712.84
2017-12-25T22:20:16.674Z,99715.51
2017-12-25T22:22:44.290Z,99720.63
2017-12-25T22:25:11.811Z,99709.38
2017-12-25T22:27:39.339Z,99700.30
2017-12-25T22:30:06.858Z,99703.72
2017-12-25T22:32:34.464Z,99692.83
2017-12-25T22:35:01.998Z,99694.48
2017-12-25T22:37:29.534Z,99689.62
2017-12-25T22:39:57.081Z,99683.73
2017-12-25T22:42:24.584Z,99672.23
2017-12-25T22:44:52.032Z,99673.00
2017-12-25T22:47:19.496Z,99663.39
2017-12-25T22:49:46.994Z,99661.66
2017-12-25T22:52:14.555Z,99649.97
2017-12-25T22:54:42.906Z,99653.34
2017-12-25T22:57:10.445Z,99652.55
2017-12-25T22:59:38.180Z,99648.73
2017-12-25T23:02:05.687Z,99651.77
2017-12-25T23:04:33.194Z,99646.23
2017-12-25T23:07:00.673Z,99632.98
2017-12-25T23:09:28.149Z,99643.15
2017-12-25T23:11:55.630Z,99637.37
2017-12-25T23:14:23.138Z,99632.59
2017-12-25T23:16:50.587Z,99621.52
2017-12-25T23:19:18.095Z,99628.64
2017-12-25T23:21:45.640Z,99620.45
2017-12-25T23:24:13.190Z,99615.48
2017-12-25T23:26:40.700Z,99601.90
2017-12-25T23:29:08.216Z,99603.34
2017-12-25T23:31:35.717Z,99600.96
2017-12-25T23:34:03.332Z,99597.22
2017-12-25T23:36:30.838Z,99598.31
2017-12-25T23:38:58.424Z,99597.20
2017-12-25T23:41:25.929Z,99588.70
2017-12-25T23:43:53.410Z,99579.37
2017-12-25T23:46:20.940Z,99580.67
2017-12-25T23:48:48.447Z,99581.41
2017-12-25T23:51:15.957Z,99588.13
2017-12-25T23:53:43.500Z,99577.93
2017-12-25T23:56:10.995Z,99569.86
2017-12-25T23:58:38.507Z,99576.64
